createdAt,value
2022-08-11T00:00:43.551Z,101192.88
2022-08-11T00:01:49.404Z,101153.22
2022-08-11T00:02:53.042Z,101208.41
2022-08-11T00:04:01.636Z,101171.66
2022-08-11T00:05:13.274Z,101173.56
2022-08-11T00:06:26.181Z,101243.88
2022-08-11T00:07:28.793Z,101176.06
2022-08-11T00:08:33.408Z,101238.63
2022-08-11T00:09:39.017Z,101247.00
2022-08-11T00:10:41.726Z,101193.63
2022-08-11T00:11:52.780Z,101243.63
2022-08-11T00:13:03.904Z,101208.16
2022-08-11T00:14:15.408Z,101191.16
2022-08-11T00:15:17.595Z,101114.53
2022-08-11T00:16:22.855Z,101216.09
2022-08-11T00:17:29.573Z,101197.63
2022-08-11T00:18:43.639Z,101245.28
2022-08-11T00:20:12.793Z,101218.41
2022-08-11T00:21:11.874Z,101243.50
2022-08-11T00:22:21.586Z,101233.78
2022-08-11T00:23:25.117Z,101240.31
2022-08-11T00:24:34.358Z,101236.13
2022-08-11T00:25:57.437Z,101166.41
2022-08-11T00:26:59.413Z,101194.50
2022-08-11T00:28:01.268Z,101244.19
2022-08-11T00:29:12.585Z,101248.00
2022-08-11T00:30:15.817Z,101102.97
2022-08-11T00:31:37.443Z,101237.59
2022-08-11T00:32:42.352Z,101169.66
2022-08-11T00:33:46.585Z,101231.44
2022-08-11T00:34:49.617Z,101125.00
2022-08-11T00:35:58.241Z,101204.97
2022-08-11T00:37:06.582Z,101234.81
2022-08-11T00:38:09.063Z,101183.41
2022-08-11T00:39:12.408Z,101218.00
2022-08-11T00:40:34.869Z,101163.66
2022-08-11T00:41:44.838Z,101231.72
2022-08-11T00:43:11.537Z,101233.41
2022-08-11T00:45:05.719Z,101225.25
2022-08-11T00:46:17.009Z,101230.13
2022-08-11T00:47:43.269Z,101245.81
2022-08-11T00:49:26.403Z,101229.09
2022-08-11T00:50:49.509Z,101232.22
2022-08-11T00:52:21.760Z,101234.53
2022-08-11T00:53:39.112Z,101224.47
2022-08-11T00:55:22.378Z,101211.19
2022-08-11T00:56:52.078Z,101221.34
2022-08-11T00:58:10.953Z,101229.69
2022-08-11T00:59:35.012Z,101228.22
2022-08-11T01:01:16.145Z,101211.06
2022-08-11T01:02:49.797Z,101170.38
2022-08-11T01:04:32.790Z,101220.72
2022-08-11T01:06:12.150Z,101223.66
2022-08-11T01:08:01.222Z,101218.22
2022-08-11T01:09:30.348Z,101214.88
2022-08-11T01:11:06.384Z,101204.00
2022-08-11T01:12:43.207Z,101191.41
2022-08-11T01:14:34.482Z,101207.75
2022-08-11T01:16:14.328Z,101213.81
2022-08-11T01:17:50.122Z,101209.44
2022-08-11T01:19:16.779Z,101221.09
2022-08-11T01:20:45.762Z,101214.63
2022-08-11T01:22:17.911Z,101209.19
2022-08-11T01:23:56.817Z,101202.91
2022-08-11T01:25:20.312Z,101209.19
2022-08-11T01:27:19.657Z,101207.69
2022-08-11T01:29:06.188Z,101213.78
2022-08-11T01:30:28.203Z,101127.06
2022-08-11T01:31:51.211Z,101217.94
2022-08-11T01:33:31.824Z,101219.44
2022-08-11T01:35:11.108Z,101227.38
2022-08-11T01:36:30.540Z,101230.69
2022-08-11T01:37:44.157Z,101231.06
2022-08-11T01:39:12.110Z,101221.41
2022-08-11T01:40:51.163Z,101229.66
2022-08-11T01:42:45.120Z,101237.31
2022-08-11T01:44:17.524Z,101238.44
2022-08-11T01:45:37.812Z,101231.34
2022-08-11T01:46:52.504Z,101197.88
2022-08-11T01:48:11.135Z,101220.09
2022-08-11T01:50:08.187Z,101197.03
2022-08-11T01:51:09.131Z,101170.38
2022-08-11T01:52:34.809Z,101239.22
2022-08-11T01:53:43.119Z,101232.47
2022-08-11T01:54:53.844Z,101166.09
2022-08-11T01:56:04.659Z,101233.09
2022-08-11T01:57:46.276Z,101232.69
2022-08-11T01:59:22.156Z,101243.63
2022-08-11T02:00:29.240Z,101241.31
2022-08-11T02:01:37.752Z,101238.94
2022-08-11T02:02:54.399Z,101243.09
2022-08-11T02:04:04.740Z,101231.81
2022-08-11T02:05:26.308Z,101237.03
2022-08-11T02:06:57.382Z,101204.25
2022-08-11T02:08:21.640Z,101241.47
2022-08-11T02:10:22.332Z,101242.97
2022-08-11T02:11:35.602Z,101249.72
2022-08-11T02:12:53.230Z,101229.66
2022-08-11T02:14:02.221Z,101247.94
2022-08-11T02:15:24.956Z,101245.41
2022-08-11T02:16:55.943Z,101247.56
2022-08-11T02:18:16.261Z,101251.50
2022-08-11T02:20:02.694Z,101252.81
2022-08-11T02:21:31.107Z,101213.91
2022-08-11T02:23:08.307Z,101237.66
2022-08-11T02:24:21.032Z,101209.31
2022-08-11T02:25:41.407Z,101229.25
2022-08-11T02:26:57.723Z,101179.28
2022-08-11T02:28:34.738Z,101247.31
2022-08-11T02:30:07.614Z,101187.72
2022-08-11T02:32:14.682Z,101252.16
2022-08-11T02:33:34.598Z,101242.75
2022-08-11T02:34:59.600Z,101221.28
2022-08-11T02:36:25.141Z,101191.69
2022-08-11T02:37:33.016Z,101256.94
2022-08-11T02:38:35.758Z,101262.75
2022-08-11T02:39:47.246Z,101196.44
2022-08-11T02:41:47.443Z,101264.44
2022-08-11T02:42:55.522Z,101241.81
2022-08-11T02:44:16.590Z,101229.19
2022-08-11T02:45:29.961Z,101265.69
2022-08-11T02:47:08.799Z,101274.91
2022-08-11T02:49:06.965Z,101269.28
2022-08-11T02:50:30.664Z,101269.38
2022-08-11T02:51:48.392Z,101262.34
2022-08-11T02:53:20.071Z,101268.66
2022-08-11T02:54:28.220Z,101270.66
2022-08-11T02:55:57.516Z,101257.88
2022-08-11T02:57:23.215Z,101270.50
2022-08-11T02:58:37.145Z,101273.00
2022-08-11T02:59:56.993Z,101272.75
2022-08-11T03:01:13.194Z,101274.25
2022-08-11T03:02:22.789Z,101257.38
2022-08-11T03:03:38.410Z,101280.66
2022-08-11T03:05:00.634Z,101257.63
2022-08-11T03:06:12.625Z,101232.38
2022-08-11T03:07:35.217Z,101271.84
2022-08-11T03:08:52.789Z,101282.56
2022-08-11T03:10:03.633Z,101277.13
2022-08-11T03:11:44.307Z,101213.91
2022-08-11T03:13:08.736Z,101284.91
2022-08-11T03:14:49.374Z,101282.19
2022-08-11T03:16:35.132Z,101292.06
2022-08-11T03:17:51.365Z,101281.53
2022-08-11T03:19:11.397Z,101292.47
2022-08-11T03:20:33.504Z,101298.47
2022-08-11T03:22:02.884Z,101306.63
2022-08-11T03:23:19.322Z,101295.13
2022-08-11T03:24:42.601Z,101299.50
2022-08-11T03:26:18.129Z,101299.50
2022-08-11T03:27:41.625Z,101300.81
2022-08-11T03:29:06.791Z,101300.16
2022-08-11T03:30:30.437Z,101303.50
2022-08-11T03:31:46.206Z,101298.88
2022-08-11T03:33:34.150Z,101302.84
2022-08-11T03:34:40.747Z,101223.25
2022-08-11T03:36:00.297Z,101248.16
2022-08-11T03:37:42.430Z,101312.84
2022-08-11T03:38:50.105Z,101295.66
2022-08-11T03:40:06.899Z,101299.03
2022-08-11T03:42:01.282Z,101296.84
2022-08-11T03:43:08.048Z,101303.28
2022-08-11T03:44:34.818Z,101295.75
2022-08-11T03:46:10.478Z,101307.50
2022-08-11T03:47:33.505Z,101285.44
2022-08-11T03:49:25.653Z,101311.28
2022-08-11T03:51:06.447Z,101306.88
2022-08-11T03:52:27.849Z,101315.44
2022-08-11T03:53:56.117Z,101308.13
2022-08-11T03:55:12.889Z,101298.69
2022-08-11T03:56:45.475Z,101306.19
2022-08-11T03:58:26.740Z,101280.91
2022-08-11T03:59:53.639Z,101306.84
2022-08-11T04:01:53.223Z,101310.00
2022-08-11T04:03:22.610Z,101313.34
2022-08-11T04:05:00.168Z,101319.19
2022-08-11T04:06:23.744Z,101315.44
2022-08-11T04:08:02.827Z,101318.34
2022-08-11T04:09:46.476Z,101315.19
2022-08-11T04:11:01.532Z,101327.09
2022-08-11T04:12:35.789Z,101325.41
2022-08-11T04:14:21.314Z,101264.88
2022-08-11T04:16:11.112Z,101331.09
2022-08-11T04:17:32.867Z,101345.97
2022-08-11T04:18:59.049Z,101353.84
2022-08-11T04:20:18.574Z,101362.41
2022-08-11T04:21:38.692Z,101360.06
2022-08-11T04:23:12.182Z,101347.13
2022-08-11T04:24:59.440Z,101325.38
2022-08-11T04:26:38.365Z,101358.06
2022-08-11T04:28:28.483Z,101354.31
2022-08-11T04:30:09.254Z,101350.31
2022-08-11T04:31:50.469Z,101349.47
2022-08-11T04:33:14.752Z,101372.09
2022-08-11T04:34:23.164Z,101376.25
2022-08-11T04:35:56.439Z,101382.31
2022-08-11T04:37:31.438Z,101382.06
2022-08-11T04:38:52.285Z,101385.25
2022-08-11T04:40:32.733Z,101344.56
2022-08-11T04:42:38.885Z,101378.84
2022-08-11T04:44:17.838Z,101389.78
2022-08-11T04:45:22.357Z,101386.16
2022-08-11T04:46:49.562Z,101375.94
2022-08-11T04:48:40.725Z,101404.53
2022-08-11T04:50:13.205Z,101407.06
2022-08-11T04:51:48.710Z,101414.53
2022-08-11T04:53:41.126Z,101425.53
2022-08-11T04:55:20.060Z,101426.72
2022-08-11T04:56:43.346Z,101408.19
2022-08-11T04:58:19.920Z,101376.78
2022-08-11T04:59:51.880Z,101433.38
2022-08-11T05:01:37.686Z,101434.41
2022-08-11T05:03:02.621Z,101425.41
2022-08-11T05:04:44.427Z,101437.97
2022-08-11T05:05:56.751Z,101441.53
2022-08-11T05:07:10.957Z,101443.78
2022-08-11T05:09:09.685Z,101441.81
2022-08-11T05:10:29.713Z,101444.72
2022-08-11T05:11:48.840Z,101444.06
2022-08-11T05:13:20.971Z,101434.59
2022-08-11T05:14:59.661Z,101404.97
2022-08-11T05:16:30.681Z,101451.09
2022-08-11T05:18:18.373Z,101422.66
2022-08-11T05:19:40.521Z,101459.13
2022-08-11T05:21:13.784Z,101427.75
2022-08-11T05:22:38.319Z,101439.81
2022-08-11T05:24:05.016Z,101382.19
2022-08-11T05:26:44.690Z,101447.59
2022-08-11T05:27:13.921Z,101390.28
2022-08-11T05:28:40.013Z,101427.06
2022-08-11T05:30:21.500Z,101407.34
2022-08-11T05:31:50.803Z,101431.94
2022-08-11T05:33:24.105Z,101463.47
2022-08-11T05:34:47.909Z,101474.25
2022-08-11T05:36:00.825Z,101450.50
2022-08-11T05:37:25.581Z,101470.66
2022-08-11T05:38:51.998Z,101474.91
2022-08-11T05:40:18.034Z,101416.09
2022-08-11T05:41:42.182Z,101474.22
2022-08-11T05:43:09.238Z,101439.72
2022-08-11T05:44:36.748Z,101438.50
2022-08-11T05:46:04.669Z,101446.50
2022-08-11T05:47:28.006Z,101458.16
2022-08-11T05:48:52.615Z,101478.47
2022-08-11T05:50:13.618Z,101473.03
2022-08-11T05:51:36.789Z,101493.81
2022-08-11T05:52:58.457Z,101485.72
2022-08-11T05:54:29.378Z,101472.63
2022-08-11T05:56:03.138Z,101505.03
2022-08-11T05:57:07.501Z,101470.84
2022-08-11T05:58:11.436Z,101405.31
2022-08-11T05:59:15.812Z,101501.69
2022-08-11T06:00:19.943Z,101500.63
2022-08-11T06:01:26.979Z,101516.16
2022-08-11T06:02:29.910Z,101522.22
2022-08-11T06:03:58.345Z,101485.84
2022-08-11T06:05:02.462Z,101523.97
2022-08-11T06:06:09.891Z,101470.56
2022-08-11T06:07:17.772Z,101511.97
2022-08-11T06:08:28.754Z,101451.53
2022-08-11T06:09:38.944Z,101525.66
2022-08-11T06:10:45.651Z,101495.34
2022-08-11T06:11:47.744Z,101453.31
2022-08-11T06:12:53.804Z,101417.78
2022-08-11T06:13:57.612Z,101480.03
2022-08-11T06:15:05.962Z,101532.78
2022-08-11T06:16:08.987Z,101537.59
2022-08-11T06:17:11.288Z,101490.91
2022-08-11T06:18:14.716Z,101528.16
2022-08-11T06:19:21.374Z,101525.84
2022-08-11T06:20:25.708Z,101407.81
2022-08-11T06:21:28.480Z,101486.94
2022-08-11T06:22:32.132Z,101534.25
2022-08-11T06:23:36.142Z,101499.91
2022-08-11T06:24:42.056Z,101554.16
2022-08-11T06:25:44.237Z,101541.78
2022-08-11T06:28:20.503Z,101490.28
2022-08-11T06:29:37.448Z,101519.75
2022-08-11T06:30:49.147Z,101516.88
2022-08-11T06:31:58.069Z,101488.22
2022-08-11T06:33:01.758Z,101550.44
2022-08-11T06:34:10.863Z,101497.28
2022-08-11T06:35:18.520Z,101540.59
2022-08-11T06:36:25.981Z,101546.69
2022-08-11T06:37:45.115Z,101472.63
2022-08-11T06:38:58.647Z,101542.56
2022-08-11T06:40:11.936Z,101540.88
2022-08-11T06:41:38.693Z,101546.56
2022-08-11T06:43:02.429Z,101504.28
2022-08-11T06:44:13.626Z,101544.03
2022-08-11T06:45:49.830Z,101389.31
2022-08-11T06:46:56.076Z,101543.63
2022-08-11T06:48:00.874Z,101520.22
2022-08-11T06:49:03.991Z,101540.88
2022-08-11T06:50:25.633Z,101547.53
2022-08-11T06:51:28.384Z,101475.03
2022-08-11T06:52:36.944Z,101547.16
2022-08-11T06:53:56.263Z,101494.94
2022-08-11T06:55:55.927Z,101406.44
2022-08-11T06:57:26.458Z,101498.56
2022-08-11T06:58:40.509Z,101543.03
2022-08-11T07:00:02.288Z,101433.72
2022-08-11T07:01:09.843Z,101563.31
2022-08-11T07:02:18.795Z,101570.22
2022-08-11T07:03:22.450Z,101489.81
2022-08-11T07:04:32.704Z,101448.19
2022-08-11T07:05:46.492Z,101562.44
2022-08-11T07:07:26.938Z,101559.72
2022-08-11T07:09:08.773Z,101566.50
2022-08-11T07:11:01.512Z,101562.72
2022-08-11T07:12:34.169Z,101556.88
2022-08-11T07:13:57.765Z,101529.03
2022-08-11T07:15:22.320Z,101562.28
2022-08-11T07:16:29.251Z,101523.97
2022-08-11T07:17:35.234Z,101571.06
2022-08-11T07:18:57.817Z,101547.84
2022-08-11T07:20:21.269Z,101590.13
2022-08-11T07:22:00.935Z,101580.06
2022-08-11T07:23:28.556Z,101505.81
2022-08-11T07:25:02.097Z,101552.59
2022-08-11T07:26:25.116Z,101542.94
2022-08-11T07:27:54.103Z,101553.44
2022-08-11T07:28:58.154Z,101523.13
2022-08-11T07:30:05.936Z,101568.34
2022-08-11T07:31:14.168Z,101572.13
2022-08-11T07:32:29.969Z,101488.97
2022-08-11T07:34:08.138Z,101524.94
2022-08-11T07:35:13.334Z,101520.56
2022-08-11T07:36:17.734Z,101493.53
2022-08-11T07:37:20.613Z,101499.75
2022-08-11T07:38:43.291Z,101540.81
2022-08-11T07:39:49.328Z,101582.38
2022-08-11T07:40:51.847Z,101563.16
2022-08-11T07:41:55.393Z,101527.84
2022-08-11T07:42:59.866Z,101560.59
2022-08-11T07:44:09.957Z,101548.66
2022-08-11T07:45:31.069Z,101512.47
2022-08-11T07:46:51.465Z,101508.31
2022-08-11T07:48:14.466Z,101544.25
2022-08-11T07:49:34.811Z,101531.75
2022-08-11T07:51:00.481Z,101549.78
2022-08-11T07:52:21.578Z,101538.25
2022-08-11T07:53:24.194Z,101550.91
2022-08-11T07:54:28.098Z,101555.22
2022-08-11T07:55:51.409Z,101531.44
2022-08-11T07:57:09.223Z,101497.44
2022-08-11T07:58:44.998Z,101577.78
2022-08-11T08:00:07.192Z,101492.38
2022-08-11T08:01:45.250Z,101503.81
2022-08-11T08:03:06.365Z,101554.31
2022-08-11T08:04:29.177Z,101545.66
2022-08-11T08:05:49.710Z,101573.56
2022-08-11T08:07:11.325Z,101573.97
2022-08-11T08:08:34.216Z,101559.59
2022-08-11T08:09:55.829Z,101595.19
2022-08-11T08:11:16.671Z,101594.31
2022-08-11T08:12:40.723Z,101579.38
2022-08-11T08:14:02.296Z,101555.13
2022-08-11T08:15:26.411Z,101601.66
2022-08-11T08:16:48.785Z,101582.94
2022-08-11T08:18:09.138Z,101593.69
2022-08-11T08:19:21.622Z,101581.06
2022-08-11T08:20:27.591Z,101600.38
2022-08-11T08:21:29.558Z,101454.28
2022-08-11T08:22:37.731Z,101544.81
2022-08-11T08:23:43.369Z,101602.47
2022-08-11T08:24:46.257Z,101578.44
2022-08-11T08:25:52.262Z,101595.53
2022-08-11T08:27:00.237Z,101521.91
2022-08-11T08:28:07.345Z,101594.25
2022-08-11T08:29:28.175Z,101608.34
2022-08-11T08:30:49.872Z,101590.19
2022-08-11T08:31:53.069Z,101573.38
2022-08-11T08:32:57.856Z,101495.47
2022-08-11T08:33:59.738Z,101592.91
2022-08-11T08:35:04.112Z,101591.81
2022-08-11T08:36:12.920Z,101612.69
2022-08-11T08:37:47.043Z,101593.50
2022-08-11T08:38:43.549Z,101623.88
2022-08-11T08:39:46.993Z,101609.97
2022-08-11T08:40:55.994Z,101593.91
2022-08-11T08:41:59.786Z,101585.47
2022-08-11T08:43:09.882Z,101543.78
2022-08-11T08:44:37.188Z,101603.81
2022-08-11T08:45:38.798Z,101499.22
2022-08-11T08:46:46.425Z,101510.75
2022-08-11T08:47:55.067Z,101604.00
2022-08-11T08:49:01.881Z,101585.88
2022-08-11T08:50:19.564Z,101633.94
2022-08-11T08:51:58.748Z,101593.50
2022-08-11T08:53:05.864Z,101580.09
2022-08-11T08:54:11.793Z,101622.81
2022-08-11T08:55:18.893Z,101611.22
2022-08-11T08:56:28.428Z,101570.97
2022-08-11T08:57:39.377Z,101595.59
2022-08-11T08:58:44.792Z,101626.81
2022-08-11T08:59:51.429Z,101632.66
2022-08-11T09:00:56.795Z,101637.25
2022-08-11T09:02:02.245Z,101636.44
2022-08-11T09:03:22.909Z,101531.25
2022-08-11T09:04:27.642Z,101621.38
2022-08-11T09:05:29.580Z,101618.22
2022-08-11T09:06:33.077Z,101542.88
2022-08-11T09:07:39.511Z,101597.16
2022-08-11T09:08:42.417Z,101637.97
2022-08-11T09:09:52.420Z,101653.59
2022-08-11T09:11:14.871Z,101625.78
2022-08-11T09:12:36.262Z,101615.69
2022-08-11T09:13:44.575Z,101623.28
2022-08-11T09:15:00.989Z,101649.44
2022-08-11T09:16:05.781Z,101611.03
2022-08-11T09:17:08.026Z,101623.69
2022-08-11T09:18:11.868Z,101639.22
2022-08-11T09:19:17.703Z,101498.16
2022-08-11T09:20:21.169Z,101676.25
2022-08-11T09:21:39.765Z,101677.28
2022-08-11T09:25:05.416Z,101657.38
2022-08-11T09:26:30.728Z,101644.38
2022-08-11T09:27:33.696Z,101636.19
2022-08-11T09:28:37.666Z,101612.72
2022-08-11T09:29:39.518Z,101638.34
2022-08-11T09:30:43.555Z,101647.94
2022-08-11T09:31:46.735Z,101535.75
2022-08-11T09:32:48.569Z,101641.22
2022-08-11T09:33:54.185Z,101644.97
2022-08-11T09:34:57.186Z,101680.84
2022-08-11T09:36:20.986Z,101551.94
2022-08-11T09:37:55.831Z,101659.38
2022-08-11T09:39:18.910Z,101660.88
2022-08-11T09:40:29.810Z,101643.63
2022-08-11T09:42:23.617Z,101614.31
2022-08-11T09:43:18.007Z,101686.78
2022-08-11T09:44:38.890Z,101686.59
2022-08-11T09:45:41.276Z,101645.44
2022-08-11T09:46:44.027Z,101658.97
2022-08-11T09:47:46.642Z,101604.19
2022-08-11T09:48:49.037Z,101663.50
2022-08-11T09:49:54.239Z,101556.13
2022-08-11T09:51:00.026Z,101682.53
2022-08-11T09:52:06.751Z,101662.47
2022-08-11T09:53:36.611Z,101598.66
2022-08-11T09:54:34.613Z,101573.06
2022-08-11T09:55:36.770Z,101585.06
2022-08-11T09:56:58.473Z,101629.94
2022-08-11T09:58:41.906Z,101662.41
2022-08-11T09:59:38.795Z,101600.94
2022-08-11T10:00:41.246Z,101675.06
2022-08-11T10:01:49.342Z,101673.56
2022-08-11T10:02:54.608Z,101586.94
2022-08-11T10:04:01.112Z,101640.03
2022-08-11T10:05:21.731Z,101579.56
2022-08-11T10:06:43.137Z,101648.69
2022-08-11T10:07:50.445Z,101674.00
2022-08-11T10:08:54.776Z,101618.63
2022-08-11T10:10:01.447Z,101606.63
2022-08-11T10:11:03.676Z,101659.44
2022-08-11T10:12:12.953Z,101628.66
2022-08-11T10:14:31.973Z,101644.44
2022-08-11T10:15:10.721Z,101683.66
2022-08-11T10:16:16.348Z,101606.88
2022-08-11T10:17:21.723Z,101640.44
2022-08-11T10:18:42.806Z,101571.13
2022-08-11T10:20:04.301Z,101686.59
2022-08-11T10:21:11.689Z,101687.22
2022-08-11T10:22:36.540Z,101682.81
2022-08-11T10:24:00.252Z,101624.25
2022-08-11T10:25:26.400Z,101625.91
2022-08-11T10:26:48.933Z,101631.75
2022-08-11T10:28:30.343Z,101634.34
2022-08-11T10:29:52.222Z,101645.97
2022-08-11T10:31:13.712Z,101627.84
2022-08-11T10:32:58.036Z,101601.75
2022-08-11T10:34:03.814Z,101640.97
2022-08-11T10:35:09.213Z,101642.13
2022-08-11T10:36:16.653Z,101651.31
2022-08-11T10:37:22.466Z,101685.94
2022-08-11T10:38:25.999Z,101703.34
2022-08-11T10:39:28.586Z,101625.81
2022-08-11T10:40:32.687Z,101579.50
2022-08-11T10:42:02.855Z,101656.19
2022-08-11T10:44:01.146Z,101638.16
2022-08-11T10:44:55.705Z,101691.66
2022-08-11T10:46:16.313Z,101607.66
2022-08-11T10:47:38.456Z,101625.09
2022-08-11T10:48:51.238Z,101642.97
2022-08-11T10:50:12.539Z,101664.72
2022-08-11T10:51:14.922Z,101649.47
2022-08-11T10:52:35.652Z,101632.00
2022-08-11T10:53:59.681Z,101683.81
2022-08-11T10:55:20.693Z,101659.75
2022-08-11T10:56:44.466Z,101634.97
2022-08-11T10:58:05.635Z,101627.03
2022-08-11T10:59:09.492Z,101608.31
2022-08-11T11:00:15.458Z,101600.94
2022-08-11T11:01:23.872Z,101647.56
2022-08-11T11:02:29.627Z,101707.34
2022-08-11T11:03:35.439Z,101700.22
2022-08-11T11:04:57.294Z,101657.97
2022-08-11T11:06:48.392Z,101691.50
2022-08-11T11:08:34.827Z,101637.59
2022-08-11T11:09:58.834Z,101611.75
2022-08-11T11:11:03.633Z,101667.91
2022-08-11T11:12:38.154Z,101635.44
2022-08-11T11:13:59.240Z,101700.31
2022-08-11T11:15:25.347Z,101643.31
2022-08-11T11:16:46.603Z,101638.06
2022-08-11T11:17:56.871Z,101661.19
2022-08-11T11:19:03.038Z,101675.06
2022-08-11T11:20:06.927Z,101688.22
2022-08-11T11:21:15.665Z,101698.13
2022-08-11T11:22:36.365Z,101650.94
2022-08-11T11:24:12.035Z,101712.00
2022-08-11T11:25:44.260Z,101663.19
2022-08-11T11:26:56.638Z,101706.63
2022-08-11T11:28:29.196Z,101684.66
2022-08-11T11:29:36.639Z,101709.53
2022-08-11T11:30:51.508Z,101666.50
2022-08-11T11:32:09.893Z,101702.78
2022-08-11T11:33:22.908Z,101717.28
2022-08-11T11:34:53.110Z,101697.91
2022-08-11T11:36:11.197Z,101658.97
2022-08-11T11:37:14.886Z,101618.28
2022-08-11T11:38:18.023Z,101650.03
2022-08-11T11:39:23.293Z,101701.69
2022-08-11T11:40:31.519Z,101596.78
2022-08-11T11:41:34.982Z,101546.91
2022-08-11T11:42:38.784Z,101661.00
2022-08-11T11:43:42.335Z,101661.38
2022-08-11T11:44:47.083Z,101700.22
2022-08-11T11:45:48.998Z,101590.41
2022-08-11T11:46:52.693Z,101645.19
2022-08-11T11:47:58.408Z,101704.63
2022-08-11T11:49:13.996Z,101582.47
2022-08-11T11:50:38.517Z,101654.38
2022-08-11T11:51:40.687Z,101664.50
2022-08-11T11:52:44.428Z,101581.47
2022-08-11T11:53:48.184Z,101590.69
2022-08-11T11:54:55.328Z,101557.28
2022-08-11T11:55:59.306Z,101609.09
2022-08-11T11:57:22.567Z,101578.91
2022-08-11T11:58:43.435Z,101643.03
2022-08-11T12:00:04.329Z,101640.38
2022-08-11T12:01:17.957Z,101633.66
2022-08-11T12:02:19.909Z,101642.28
2022-08-11T12:03:23.399Z,101634.69
2022-08-11T12:04:27.590Z,101656.53
2022-08-11T12:05:33.668Z,101670.41
2022-08-11T12:06:37.579Z,101651.56
2022-08-11T12:08:05.227Z,101579.56
2022-08-11T12:09:18.530Z,101688.13
2022-08-11T12:10:21.022Z,101565.94
2022-08-11T12:11:43.803Z,101705.31
2022-08-11T12:13:05.938Z,101641.72
2022-08-11T12:14:10.695Z,101649.19
2022-08-11T12:15:13.555Z,101667.44
2022-08-11T12:16:34.851Z,101695.25
2022-08-11T12:17:38.778Z,101568.91
2022-08-11T12:18:43.195Z,101591.94
2022-08-11T12:19:48.487Z,101703.59
2022-08-11T12:20:50.943Z,101622.94
2022-08-11T12:22:14.648Z,101706.56
2022-08-11T12:23:35.693Z,101622.94
2022-08-11T12:24:57.680Z,101648.47
2022-08-11T12:26:26.886Z,101708.94
2022-08-11T12:27:30.887Z,101676.88
2022-08-11T12:28:34.246Z,101666.97
2022-08-11T12:29:41.192Z,101632.41
2022-08-11T12:30:49.584Z,101612.00
2022-08-11T12:31:58.693Z,101661.53
2022-08-11T12:33:00.825Z,101634.09
2022-08-11T12:34:11.609Z,101599.06
2022-08-11T12:35:16.143Z,101718.75
2022-08-11T12:36:20.605Z,101678.44
2022-08-11T12:37:30.402Z,101718.09
2022-08-11T12:38:35.201Z,101587.06
2022-08-11T12:40:50.105Z,101707.34
2022-08-11T12:41:57.497Z,101675.44
2022-08-11T12:43:24.299Z,101725.53
2022-08-11T12:44:57.961Z,101671.63
2022-08-11T12:46:04.125Z,101708.47
2022-08-11T12:47:06.537Z,101674.75
2022-08-11T12:48:58.559Z,101701.00
2022-08-11T12:50:22.609Z,101728.25
2022-08-11T12:52:10.918Z,101715.38
2022-08-11T12:53:12.180Z,101677.06
2022-08-11T12:54:16.873Z,101726.13
2022-08-11T12:55:42.553Z,101731.97
2022-08-11T12:57:36.717Z,101674.56
2022-08-11T12:58:42.310Z,101645.09
2022-08-11T13:00:04.502Z,101730.53
2022-08-11T13:01:25.213Z,101691.00
2022-08-11T13:02:46.725Z,101696.22
2022-08-11T13:04:07.082Z,101700.22
2022-08-11T13:05:13.142Z,101685.06
2022-08-11T13:06:16.590Z,101696.19
2022-08-11T13:07:18.955Z,101614.94
2022-08-11T13:08:23.462Z,101726.03
2022-08-11T13:09:25.360Z,101627.25
2022-08-11T13:10:48.334Z,101690.38
2022-08-11T13:12:08.796Z,101644.47
2022-08-11T13:13:54.661Z,101674.78
2022-08-11T13:14:34.165Z,101708.16
2022-08-11T13:15:36.655Z,101633.78
2022-08-11T13:16:57.570Z,101660.28
2022-08-11T13:18:00.679Z,101743.50
2022-08-11T13:19:03.191Z,101741.19
2022-08-11T13:20:06.393Z,101674.38
2022-08-11T13:21:10.943Z,101673.09
2022-08-11T13:22:13.193Z,101667.66
2022-08-11T13:23:16.474Z,101687.47
2022-08-11T13:24:19.232Z,101592.34
2022-08-11T13:25:26.526Z,101731.72
2022-08-11T13:26:47.330Z,101672.31
2022-08-11T13:29:00.087Z,101603.91
2022-08-11T13:30:21.780Z,101645.84
2022-08-11T13:31:23.964Z,101682.38
2022-08-11T13:32:26.467Z,101675.78
2022-08-11T13:33:29.300Z,101628.16
2022-08-11T13:34:32.234Z,101684.16
2022-08-11T13:35:35.193Z,101583.56
2022-08-11T13:36:37.476Z,101633.69
2022-08-11T13:38:17.794Z,101693.09
2022-08-11T13:39:03.608Z,101641.06
2022-08-11T13:40:06.602Z,101682.59
2022-08-11T13:41:29.144Z,101726.34
2022-08-11T13:42:31.432Z,101689.31
2022-08-11T13:43:33.436Z,101682.97
2022-08-11T13:44:38.459Z,101575.94
2022-08-11T13:45:40.650Z,101744.53
2022-08-11T13:46:44.442Z,101702.47
2022-08-11T13:47:46.961Z,101592.38
2022-08-11T13:48:50.007Z,101597.00
2022-08-11T13:49:52.557Z,101721.84
2022-08-11T13:51:13.059Z,101583.44
2022-08-11T13:52:16.733Z,101674.03
2022-08-11T13:53:22.288Z,101734.50
2022-08-11T13:54:28.140Z,101686.59
2022-08-11T13:55:51.181Z,101727.44
2022-08-11T13:56:56.148Z,101680.75
2022-08-11T13:58:07.516Z,101657.56
2022-08-11T13:59:29.604Z,101745.44
2022-08-11T14:00:32.394Z,101700.22
2022-08-11T14:02:20.809Z,101706.06
2022-08-11T14:03:03.941Z,101699.31
2022-08-11T14:04:30.076Z,101583.53
2022-08-11T14:05:40.302Z,101738.94
2022-08-11T14:06:52.536Z,101707.34
2022-08-11T14:08:01.249Z,101693.47
2022-08-11T14:09:08.347Z,101711.81
2022-08-11T14:10:13.774Z,101653.16
2022-08-11T14:12:22.894Z,101734.28
2022-08-11T14:13:22.811Z,101723.22
2022-08-11T14:14:28.034Z,101703.44
2022-08-11T14:15:33.898Z,101685.31
2022-08-11T14:16:42.502Z,101694.94
2022-08-11T14:17:49.025Z,101704.81
2022-08-11T14:18:54.515Z,101688.03
2022-08-11T14:19:59.364Z,101699.16
2022-08-11T14:21:23.788Z,101681.22
2022-08-11T14:22:26.013Z,101662.09
2022-08-11T14:23:31.836Z,101728.84
2022-08-11T14:24:42.932Z,101734.28
2022-08-11T14:26:04.822Z,101669.13
2022-08-11T14:28:15.475Z,101652.72
2022-08-11T14:28:43.877Z,101694.63
2022-08-11T14:29:48.956Z,101681.78
2022-08-11T14:31:01.259Z,101694.13
2022-08-11T14:32:06.677Z,101594.19
2022-08-11T14:33:17.068Z,101688.28
2022-08-11T14:34:25.051Z,101721.78
2022-08-11T14:35:29.085Z,101675.22
2022-08-11T14:36:51.209Z,101681.53
2022-08-11T14:37:54.133Z,101681.31
2022-08-11T14:38:56.869Z,101691.47
2022-08-11T14:40:03.882Z,101725.06
2022-08-11T14:41:25.989Z,101685.09
2022-08-11T14:42:46.188Z,101686.84
2022-08-11T14:44:13.703Z,101692.53
2022-08-11T14:45:58.048Z,101660.31
2022-08-11T14:47:23.964Z,101697.81
2022-08-11T14:48:27.385Z,101686.50
2022-08-11T14:49:30.254Z,101690.44
2022-08-11T14:50:34.601Z,101589.72
2022-08-11T14:51:36.913Z,101667.84
2022-08-11T14:52:59.692Z,101635.44